createdAt,value
2018-07-11T00:00:33.279Z,22.18
2018-07-11T00:01:33.197Z,22.19
2018-07-11T00:02:33.213Z,22.18
2018-07-11T00:03:33.028Z,22.16
2018-07-11T00:04:32.914Z,22.16
2018-07-11T00:05:33.216Z,22.18
2018-07-11T00:06:33.174Z,22.15
2018-07-11T00:07:33.097Z,22.16
2018-07-11T00:08:33.448Z,22.16
2018-07-11T00:09:33.142Z,22.19
2018-07-11T00:10:33.286Z,22.15
2018-07-11T00:11:33.159Z,22.18
2018-07-11T00:12:33.144Z,22.15
2018-07-11T00:13:32.989Z,22.16
2018-07-11T00:14:33.124Z,22.18
2018-07-11T00:15:33.086Z,22.18
2018-07-11T00:16:33.103Z,22.16
2018-07-11T00:17:33.073Z,22.16
2018-07-11T00:18:33.081Z,22.15
2018-07-11T00:19:33.088Z,22.16
2018-07-11T00:20:33.044Z,22.18
2018-07-11T00:21:33.022Z,22.16
2018-07-11T00:22:32.969Z,22.18
2018-07-11T00:23:33.117Z,22.16
2018-07-11T00:24:33.368Z,22.18
2018-07-11T00:25:33.173Z,22.16
2018-07-11T00:26:33.221Z,22.13
2018-07-11T00:27:33.202Z,22.18
2018-07-11T00:28:33.177Z,22.15
2018-07-11T00:29:33.188Z,22.18
2018-07-11T00:30:33.125Z,22.19
2018-07-11T00:31:33.142Z,22.16
2018-07-11T00:32:33.171Z,22.18
2018-07-11T00:33:33.249Z,22.13
2018-07-11T00:34:33.187Z,22.18
2018-07-11T00:35:33.125Z,22.18
2018-07-11T00:36:33.122Z,22.13
2018-07-11T00:37:33.517Z,22.15
2018-07-11T00:38:33.218Z,22.15
2018-07-11T00:39:33.194Z,22.15
2018-07-11T00:40:43.198Z,22.15
2018-07-11T00:41:33.194Z,22.16
2018-07-11T00:42:33.242Z,22.16
2018-07-11T00:43:33.036Z,22.15
2018-07-11T00:44:33.067Z,22.16
2018-07-11T00:45:33.090Z,22.18
2018-07-11T00:46:33.301Z,22.13
2018-07-11T00:47:33.031Z,22.15
2018-07-11T00:48:33.238Z,22.15
2018-07-11T00:49:33.196Z,22.15
2018-07-11T00:50:33.083Z,22.18
2018-07-11T00:51:33.604Z,22.15
2018-07-11T00:52:33.155Z,22.13
2018-07-11T00:53:33.260Z,22.15
2018-07-11T00:54:33.380Z,22.16
2018-07-11T00:55:33.264Z,22.13
2018-07-11T00:57:02.678Z,22.15
2018-07-11T00:57:33.101Z,22.15
2018-07-11T00:58:33.270Z,22.16
2018-07-11T00:59:33.068Z,22.13
2018-07-11T01:00:33.416Z,22.13
2018-07-11T01:01:33.101Z,22.15
2018-07-11T01:02:33.150Z,22.16
2018-07-11T01:03:33.192Z,22.15
2018-07-11T01:04:33.029Z,22.15
2018-07-11T01:05:33.041Z,22.16
2018-07-11T01:06:33.212Z,22.13
2018-07-11T01:07:33.166Z,22.12
2018-07-11T01:08:33.177Z,22.16
2018-07-11T01:09:33.109Z,22.15
2018-07-11T01:10:33.051Z,22.15
2018-07-11T01:11:33.207Z,22.13
2018-07-11T01:12:33.188Z,22.15
2018-07-11T01:13:33.437Z,22.13
2018-07-11T01:14:33.133Z,22.13
2018-07-11T01:15:33.227Z,22.15
2018-07-11T01:16:33.095Z,22.12
2018-07-11T01:17:32.971Z,22.15
2018-07-11T01:18:33.344Z,22.16
2018-07-11T01:19:33.058Z,22.15
2018-07-11T01:20:33.236Z,22.15
2018-07-11T01:21:33.084Z,22.13
2018-07-11T01:22:32.999Z,22.13
2018-07-11T01:23:33.293Z,22.11
2018-07-11T01:24:33.281Z,22.13
2018-07-11T01:25:33.263Z,22.12
2018-07-11T01:26:33.065Z,22.12
2018-07-11T01:27:33.076Z,22.13
2018-07-11T01:28:33.151Z,22.12
2018-07-11T01:29:33.036Z,22.15
2018-07-11T01:30:33.068Z,22.12
2018-07-11T01:31:33.205Z,22.12
2018-07-11T01:32:33.169Z,22.13
2018-07-11T01:33:33.321Z,22.15
2018-07-11T01:34:33.050Z,22.13
2018-07-11T01:35:33.071Z,22.15
2018-07-11T01:36:33.191Z,22.15
2018-07-11T01:37:33.040Z,22.13
2018-07-11T01:38:33.042Z,22.13
2018-07-11T01:39:33.125Z,22.12
2018-07-11T01:40:33.117Z,22.12
2018-07-11T01:41:33.091Z,22.15
2018-07-11T01:42:33.095Z,22.12
2018-07-11T01:43:33.072Z,22.11
2018-07-11T01:44:33.045Z,22.13
2018-07-11T01:45:33.277Z,22.12
2018-07-11T01:46:33.145Z,22.11
2018-07-11T01:47:33.548Z,22.13
2018-07-11T01:48:33.144Z,22.13
2018-07-11T01:49:33.067Z,22.12
2018-07-11T01:50:33.302Z,22.13
2018-07-11T01:51:33.026Z,22.12
2018-07-11T01:52:33.270Z,22.12
2018-07-11T01:53:32.937Z,22.13
2018-07-11T01:54:33.105Z,22.13
2018-07-11T01:55:33.085Z,22.11
2018-07-11T01:56:33.149Z,22.13
2018-07-11T01:57:33.240Z,22.11
2018-07-11T01:58:33.036Z,22.12
2018-07-11T01:59:33.145Z,22.12
2018-07-11T02:00:33.437Z,22.13
2018-07-11T02:01:33.085Z,22.13
2018-07-11T02:02:33.302Z,22.12
2018-07-11T02:03:33.153Z,22.12
2018-07-11T02:04:33.001Z,22.12
2018-07-11T02:05:33.218Z,22.13
2018-07-11T02:06:33.161Z,22.13
2018-07-11T02:07:33.391Z,22.11
2018-07-11T02:08:33.361Z,22.13
2018-07-11T02:09:33.107Z,22.11
2018-07-11T02:10:32.882Z,22.11
2018-07-11T02:11:33.022Z,22.13
2018-07-11T02:12:33.233Z,22.11
2018-07-11T02:13:33.217Z,22.12
2018-07-11T02:14:33.197Z,22.12
2018-07-11T02:15:33.009Z,22.12
2018-07-11T02:16:33.205Z,22.11
2018-07-11T02:17:33.064Z,22.13
2018-07-11T02:18:33.151Z,22.12
2018-07-11T02:19:33.298Z,22.13
2018-07-11T02:20:32.910Z,22.12
2018-07-11T02:21:33.322Z,22.12
2018-07-11T02:22:33.356Z,22.12
2018-07-11T02:23:33.087Z,22.11
2018-07-11T02:24:33.164Z,22.12
2018-07-11T02:25:33.233Z,22.09
2018-07-11T02:26:33.094Z,22.09
2018-07-11T02:27:33.089Z,22.11
2018-07-11T02:28:33.088Z,22.13
2018-07-11T02:29:33.018Z,22.11
2018-07-11T02:30:33.162Z,22.12
2018-07-11T02:31:32.985Z,22.12
2018-07-11T02:32:33.051Z,22.12
2018-07-11T02:33:33.188Z,22.13
2018-07-11T02:34:33.013Z,22.11
2018-07-11T02:35:33.326Z,22.12
2018-07-11T02:36:33.282Z,22.12
2018-07-11T02:37:33.175Z,22.09
2018-07-11T02:38:33.022Z,22.12
2018-07-11T02:39:33.170Z,22.12
2018-07-11T02:40:33.171Z,22.09
2018-07-11T02:41:33.006Z,22.16
2018-07-11T02:42:33.184Z,22.11
2018-07-11T02:43:33.177Z,22.09
2018-07-11T02:44:33.115Z,22.12
2018-07-11T02:45:33.020Z,22.08
2018-07-11T02:46:33.246Z,22.12
2018-07-11T02:47:33.032Z,22.12
2018-07-11T02:48:33.263Z,22.11
2018-07-11T02:49:32.988Z,22.11
2018-07-11T02:50:33.089Z,22.09
2018-07-11T02:51:32.993Z,22.12
2018-07-11T02:52:33.134Z,22.09
2018-07-11T02:53:33.245Z,22.09
2018-07-11T02:54:33.126Z,22.11
2018-07-11T02:55:33.279Z,22.11
2018-07-11T02:56:33.046Z,22.12
2018-07-11T02:57:33.192Z,22.11
2018-07-11T02:58:33.363Z,22.09
2018-07-11T02:59:33.130Z,22.12
2018-07-11T03:00:33.326Z,22.11
2018-07-11T03:01:33.230Z,22.11
2018-07-11T03:02:33.111Z,22.11
2018-07-11T03:03:33.309Z,22.09
2018-07-11T03:04:33.239Z,22.11
2018-07-11T03:05:32.975Z,22.12
2018-07-11T03:06:33.268Z,22.11
2018-07-11T03:07:33.064Z,22.09
2018-07-11T03:08:33.154Z,22.08
2018-07-11T03:09:33.166Z,22.12
2018-07-11T03:10:32.963Z,22.11
2018-07-11T03:11:33.165Z,22.12
2018-07-11T03:12:33.113Z,22.11
2018-07-11T03:13:33.315Z,22.09
2018-07-11T03:14:33.020Z,22.12
2018-07-11T03:15:33.073Z,22.12
2018-07-11T03:16:33.314Z,22.09
2018-07-11T03:17:33.207Z,22.09
2018-07-11T03:18:33.067Z,22.11
2018-07-11T03:19:33.246Z,22.11
2018-07-11T03:20:33.215Z,22.11
2018-07-11T03:21:33.052Z,22.11
2018-07-11T03:22:33.120Z,22.09
2018-07-11T03:23:32.995Z,22.11
2018-07-11T03:24:33.014Z,22.09
2018-07-11T03:25:33.238Z,22.09
2018-07-11T03:26:33.108Z,22.09
2018-07-11T03:27:33.161Z,22.11
2018-07-11T03:28:32.981Z,22.11
2018-07-11T03:29:33.097Z,22.12
2018-07-11T03:30:33.053Z,22.11
2018-07-11T03:31:33.111Z,22.09
2018-07-11T03:32:33.579Z,22.11
2018-07-11T03:33:33.138Z,22.11
2018-07-11T03:34:33.053Z,22.09
2018-07-11T03:35:33.100Z,22.11
2018-07-11T03:36:33.169Z,22.11
2018-07-11T03:37:33.394Z,22.08
2018-07-11T03:38:33.157Z,22.09
2018-07-11T03:39:33.101Z,22.11
2018-07-11T03:40:33.208Z,22.08
2018-07-11T03:41:33.105Z,22.09
2018-07-11T03:42:33.180Z,22.11
2018-07-11T03:43:32.928Z,22.08
2018-07-11T03:44:33.274Z,22.09
2018-07-11T03:45:33.190Z,22.08
2018-07-11T03:46:33.062Z,22.09
2018-07-11T03:47:33.059Z,22.11
2018-07-11T03:48:33.011Z,22.08
2018-07-11T03:49:33.204Z,22.08
2018-07-11T03:50:32.951Z,22.09
2018-07-11T03:51:33.271Z,22.09
2018-07-11T03:52:32.986Z,22.09
2018-07-11T03:53:33.109Z,22.08
2018-07-11T03:54:32.852Z,22.08
2018-07-11T03:55:33.115Z,22.06
2018-07-11T03:56:33.178Z,22.06
2018-07-11T03:57:33.096Z,22.09
2018-07-11T03:58:33.229Z,22.09
2018-07-11T03:59:33.188Z,22.08
2018-07-11T04:00:33.168Z,22.09
2018-07-11T04:01:32.929Z,22.08
2018-07-11T04:02:33.045Z,22.09
2018-07-11T04:03:32.956Z,22.08
2018-07-11T04:04:33.118Z,22.08
2018-07-11T04:05:33.272Z,22.08
2018-07-11T04:06:33.165Z,22.09
2018-07-11T04:07:33.265Z,22.08
2018-07-11T04:08:33.055Z,22.09
2018-07-11T04:09:33.267Z,22.08
2018-07-11T04:10:32.989Z,22.09
2018-07-11T04:11:33.184Z,22.08
2018-07-11T04:12:33.019Z,22.08
2018-07-11T04:13:33.119Z,22.06
2018-07-11T04:14:33.117Z,22.08
2018-07-11T04:15:33.231Z,22.09
2018-07-11T04:16:33.358Z,22.08
2018-07-11T04:17:32.944Z,22.06
2018-07-11T04:18:33.320Z,22.08
2018-07-11T04:19:32.954Z,22.08
2018-07-11T04:20:33.185Z,22.08
2018-07-11T04:21:33.339Z,22.08
2018-07-11T04:22:33.042Z,22.08
2018-07-11T04:23:33.152Z,22.11
2018-07-11T04:24:33.108Z,22.08
2018-07-11T04:25:33.221Z,22.08
2018-07-11T04:26:33.056Z,22.08
2018-07-11T04:27:33.183Z,22.09
2018-07-11T04:28:33.043Z,22.09
2018-07-11T04:29:33.124Z,22.08
2018-07-11T04:30:33.213Z,22.06
2018-07-11T04:31:33.071Z,22.06
2018-07-11T04:32:33.212Z,22.09
2018-07-11T04:33:33.673Z,22.08
2018-07-11T04:34:33.537Z,22.06
2018-07-11T04:35:33.277Z,22.06
2018-07-11T04:36:33.141Z,22.09
2018-07-11T04:37:33.003Z,22.06
2018-07-11T04:38:32.959Z,22.09
2018-07-11T04:39:32.973Z,22.09
2018-07-11T04:40:33.338Z,22.08
2018-07-11T04:41:33.022Z,22.08
2018-07-11T04:42:33.697Z,22.06
2018-07-11T04:43:33.216Z,22.06
2018-07-11T04:44:33.109Z,22.06
2018-07-11T04:45:33.198Z,22.06
2018-07-11T04:46:32.868Z,22.06
2018-07-11T04:47:33.063Z,22.06
2018-07-11T04:48:33.434Z,22.08
2018-07-11T04:49:33.254Z,22.06
2018-07-11T04:50:33.260Z,22.09
2018-07-11T04:51:33.094Z,22.08
2018-07-11T04:52:33.542Z,22.06
2018-07-11T04:53:33.294Z,22.06
2018-07-11T04:54:33.167Z,22.05
2018-07-11T04:55:32.931Z,22.08
2018-07-11T04:56:33.137Z,22.06
2018-07-11T04:57:33.087Z,22.08
2018-07-11T04:58:33.315Z,22.06
2018-07-11T04:59:33.126Z,22.06
2018-07-11T05:00:33.255Z,22.06
2018-07-11T05:01:32.922Z,22.08
2018-07-11T05:02:33.041Z,22.06
2018-07-11T05:03:33.160Z,22.06
2018-07-11T05:04:32.967Z,22.06
2018-07-11T05:05:33.130Z,22.08
2018-07-11T05:06:33.178Z,22.08
2018-07-11T05:07:33.162Z,22.06
2018-07-11T05:08:33.086Z,22.11
2018-07-11T05:09:33.004Z,22.06
2018-07-11T05:10:33.144Z,22.08
2018-07-11T05:11:33.041Z,22.05
2018-07-11T05:12:33.031Z,22.06
2018-07-11T05:13:32.933Z,22.06
2018-07-11T05:14:33.054Z,22.06
2018-07-11T05:15:33.213Z,22.08
2018-07-11T05:16:33.261Z,22.05
2018-07-11T05:17:33.055Z,22.06
2018-07-11T05:18:33.072Z,22.06
2018-07-11T05:19:33.078Z,22.06
2018-07-11T05:20:33.090Z,22.06
2018-07-11T05:21:32.991Z,22.05
2018-07-11T05:22:32.914Z,22.08
2018-07-11T05:23:33.034Z,22.06
2018-07-11T05:24:32.974Z,22.06
2018-07-11T05:25:33.116Z,22.05
2018-07-11T05:26:33.206Z,22.08
2018-07-11T05:27:33.915Z,22.05
2018-07-11T05:28:33.131Z,22.05
2018-07-11T05:29:33.173Z,22.09
2018-07-11T05:30:33.080Z,22.08
2018-07-11T05:31:33.013Z,22.08
2018-07-11T05:32:33.119Z,22.06
2018-07-11T05:33:33.405Z,22.06
2018-07-11T05:34:33.030Z,22.05
2018-07-11T05:35:33.263Z,22.06
2018-07-11T05:36:33.115Z,22.06
2018-07-11T05:37:33.032Z,22.08
2018-07-11T05:38:33.081Z,22.05
2018-07-11T05:39:33.064Z,22.08
2018-07-11T05:40:32.985Z,22.08
2018-07-11T05:41:33.231Z,22.08
2018-07-11T05:42:33.720Z,22.08
2018-07-11T05:43:33.217Z,22.06
2018-07-11T05:44:32.985Z,22.06
2018-07-11T05:45:33.126Z,22.06
2018-07-11T05:46:33.265Z,22.05
2018-07-11T05:47:33.123Z,22.05
2018-07-11T05:48:32.969Z,22.06
2018-07-11T05:49:32.893Z,22.06
2018-07-11T05:50:33.180Z,22.04
2018-07-11T05:51:33.108Z,22.05
2018-07-11T05:52:33.289Z,22.05
2018-07-11T05:53:33.166Z,22.05
2018-07-11T05:54:33.130Z,22.06
2018-07-11T05:55:33.228Z,22.06
2018-07-11T05:56:33.153Z,22.08
2018-07-11T05:57:33.032Z,22.09
2018-07-11T05:58:43.070Z,22.04
2018-07-11T05:59:33.116Z,22.06
2018-07-11T06:00:33.161Z,22.05
2018-07-11T06:01:33.044Z,22.06
2018-07-11T06:02:33.322Z,22.04
2018-07-11T06:03:33.130Z,22.06
2018-07-11T06:04:33.296Z,22.06
2018-07-11T06:05:33.779Z,22.08
2018-07-11T06:06:33.034Z,22.06
2018-07-11T06:07:33.243Z,22.08
2018-07-11T06:08:33.092Z,22.06
2018-07-11T06:09:32.964Z,22.08
2018-07-11T06:10:32.985Z,22.08
2018-07-11T06:11:33.145Z,22.06
2018-07-11T06:12:34.117Z,22.05
2018-07-11T06:13:33.435Z,22.05
2018-07-11T06:14:32.982Z,22.08
2018-07-11T06:15:33.164Z,22.08
2018-07-11T06:16:33.035Z,22.06
2018-07-11T06:17:33.003Z,22.06
2018-07-11T06:18:33.188Z,22.06
2018-07-11T06:19:33.554Z,22.05
2018-07-11T06:20:33.180Z,22.08
2018-07-11T06:21:33.068Z,22.06
2018-07-11T06:22:33.124Z,22.05
2018-07-11T06:23:32.912Z,22.06
2018-07-11T06:24:34.893Z,22.04
2018-07-11T06:25:33.099Z,22.05
2018-07-11T06:26:33.009Z,22.08
2018-07-11T06:27:33.144Z,22.06
2018-07-11T06:28:32.939Z,22.04
2018-07-11T06:29:33.174Z,22.06
2018-07-11T06:30:33.188Z,22.06
2018-07-11T06:31:33.137Z,22.05
2018-07-11T06:32:32.878Z,22.05
2018-07-11T06:33:34.782Z,22.05
2018-07-11T06:34:33.500Z,22.04
2018-07-11T06:35:35.768Z,22.06
2018-07-11T06:36:33.114Z,22.02
2018-07-11T06:37:33.015Z,22.04
2018-07-11T06:38:33.234Z,22.05
2018-07-11T06:39:32.903Z,22.05
2018-07-11T06:40:33.099Z,22.04
2018-07-11T06:41:33.053Z,22.05
2018-07-11T06:42:33.022Z,22.05
2018-07-11T06:43:33.067Z,22.05
2018-07-11T06:44:33.949Z,22.05
2018-07-11T06:45:33.284Z,22.06
2018-07-11T06:46:32.953Z,22.05
2018-07-11T06:47:33.025Z,22.05
2018-07-11T06:48:33.289Z,22.06
2018-07-11T06:49:33.062Z,22.05
2018-07-11T06:50:43.216Z,22.05
2018-07-11T06:51:33.112Z,22.05
2018-07-11T06:52:33.046Z,22.05
2018-07-11T06:53:33.169Z,22.08
2018-07-11T06:54:33.187Z,22.06
2018-07-11T06:55:33.113Z,22.04
2018-07-11T06:56:33.047Z,22.05
2018-07-11T06:57:33.477Z,22.05
2018-07-11T06:58:33.261Z,22.05
2018-07-11T06:59:32.896Z,22.04
2018-07-11T07:00:32.986Z,22.04
2018-07-11T07:01:32.980Z,22.04
2018-07-11T07:02:33.145Z,22.04
2018-07-11T07:03:33.742Z,22.05
2018-07-11T07:04:32.951Z,22.05
2018-07-11T07:05:33.093Z,22.05
2018-07-11T07:06:32.874Z,22.06
2018-07-11T07:07:33.097Z,22.05
2018-07-11T07:08:33.077Z,22.09
2018-07-11T07:09:33.226Z,22.04
2018-07-11T07:10:32.989Z,22.05
2018-07-11T07:11:33.056Z,21.99
2018-07-11T07:12:32.951Z,22.01
2018-07-11T07:13:33.154Z,22.01
2018-07-11T07:14:33.089Z,22.04
2018-07-11T07:15:32.919Z,22.02
2018-07-11T07:16:33.658Z,22.06
2018-07-11T07:17:33.393Z,22.04
2018-07-11T07:18:33.789Z,22.05
2018-07-11T07:19:33.644Z,22.04
2018-07-11T07:20:33.770Z,22.04
2018-07-11T07:21:33.716Z,22.05
2018-07-11T07:22:34.558Z,22.06
2018-07-11T07:23:33.613Z,22.09
2018-07-11T07:24:33.585Z,22.11
2018-07-11T07:25:34.643Z,22.09
2018-07-11T07:26:33.716Z,22.12
2018-07-11T07:27:33.750Z,22.11
2018-07-11T07:28:33.591Z,22.11
2018-07-11T07:29:33.778Z,22.09
2018-07-11T07:30:33.095Z,22.12
2018-07-11T07:31:33.752Z,22.12
2018-07-11T07:32:33.700Z,22.13
2018-07-11T07:33:33.519Z,22.12
2018-07-11T07:34:35.000Z,22.13
2018-07-11T07:35:33.643Z,22.12
2018-07-11T07:36:34.527Z,22.11
2018-07-11T07:37:34.581Z,22.12
2018-07-11T07:38:33.504Z,22.11
2018-07-11T07:39:34.957Z,22.12
2018-07-11T07:40:33.746Z,22.12
2018-07-11T07:41:33.770Z,22.09
2018-07-11T07:43:03.097Z,22.12
2018-07-11T07:43:33.465Z,22.15
2018-07-11T07:44:33.605Z,22.11
2018-07-11T07:45:33.423Z,22.12
2018-07-11T07:46:33.752Z,22.13
2018-07-11T07:47:33.891Z,22.06
2018-07-11T07:48:33.805Z,22.09
2018-07-11T07:49:33.795Z,22.08
2018-07-11T07:50:33.547Z,22.05
2018-07-11T07:51:33.571Z,22.06
2018-07-11T07:52:33.499Z,22.08
2018-07-11T07:53:33.774Z,22.08
2018-07-11T07:54:33.562Z,22.06
2018-07-11T07:55:33.850Z,22.09
2018-07-11T07:56:33.510Z,22.08
2018-07-11T07:57:34.586Z,22.05
2018-07-11T07:58:35.018Z,22.04
2018-07-11T07:59:34.913Z,22.04
2018-07-11T08:00:33.787Z,22.06
2018-07-11T08:01:33.833Z,22.06
2018-07-11T08:02:33.561Z,22.06
2018-07-11T08:03:34.302Z,22.06
2018-07-11T08:04:33.609Z,22.08
2018-07-11T08:05:33.937Z,22.04
2018-07-11T08:06:35.188Z,22.05
2018-07-11T08:07:33.566Z,22.06
2018-07-11T08:08:33.646Z,22.05
2018-07-11T08:09:33.435Z,22.05
2018-07-11T08:10:33.812Z,22.05
2018-07-11T08:11:34.613Z,22.06
2018-07-11T08:12:33.577Z,22.04
2018-07-11T08:13:33.789Z,22.05
2018-07-11T08:14:34.041Z,22.06
2018-07-11T08:15:34.717Z,22.06
2018-07-11T08:16:35.135Z,22.06
2018-07-11T08:17:33.135Z,22.08
2018-07-11T08:18:33.734Z,22.04
2018-07-11T08:19:34.069Z,22.04
2018-07-11T08:20:32.915Z,22.05
2018-07-11T08:21:33.755Z,22.05
2018-07-11T08:22:32.862Z,22.05
2018-07-11T08:23:32.891Z,22.08
2018-07-11T08:24:33.518Z,22.08
2018-07-11T08:25:33.971Z,22.08
2018-07-11T08:26:32.956Z,22.08
2018-07-11T08:27:33.848Z,22.06
2018-07-11T08:28:32.931Z,22.12
2018-07-11T08:29:33.937Z,22.05
2018-07-11T08:30:33.002Z,22.04
2018-07-11T08:31:34.108Z,22.04
2018-07-11T08:32:32.874Z,22.06
2018-07-11T08:33:33.972Z,22.04
2018-07-11T08:34:33.470Z,22.04
2018-07-11T08:35:33.575Z,22.05
2018-07-11T08:36:33.928Z,22.08
2018-07-11T08:37:33.361Z,22.11
2018-07-11T08:38:32.924Z,22.05
2018-07-11T08:39:33.276Z,22.05
2018-07-11T08:40:33.848Z,22.04
2018-07-11T08:41:34.138Z,22.04
2018-07-11T08:42:33.527Z,22.05
2018-07-11T08:43:32.873Z,22.06
2018-07-11T08:44:32.976Z,22.05
2018-07-11T08:45:33.060Z,22.05
2018-07-11T08:46:32.991Z,22.05
2018-07-11T08:47:32.977Z,22.04
2018-07-11T08:48:32.882Z,22.05
2018-07-11T08:49:33.093Z,22.04
2018-07-11T08:50:32.962Z,22.04
2018-07-11T08:51:32.957Z,22.05
2018-07-11T08:52:32.987Z,22.06
2018-07-11T08:53:33.120Z,22.05
2018-07-11T08:54:32.936Z,22.04
2018-07-11T08:55:32.861Z,22.01
2018-07-11T08:56:32.943Z,22.01
2018-07-11T08:57:32.902Z,22.02
2018-07-11T08:58:32.884Z,22.01
2018-07-11T08:59:32.973Z,22.04
2018-07-11T09:00:32.887Z,22.02
2018-07-11T09:01:32.981Z,22.02
2018-07-11T09:02:33.101Z,22.05
2018-07-11T09:03:33.134Z,22.05
2018-07-11T09:04:32.873Z,22.04
2018-07-11T09:05:33.880Z,22.09
2018-07-11T09:06:32.868Z,22.09
2018-07-11T09:07:33.091Z,22.08
2018-07-11T09:08:33.063Z,22.09
2018-07-11T09:09:33.053Z,22.08
2018-07-11T09:10:34.303Z,22.11
2018-07-11T09:11:34.174Z,22.08
2018-07-11T09:12:33.066Z,22.06
2018-07-11T09:13:33.069Z,22.08
2018-07-11T09:14:32.972Z,22.11
2018-07-11T09:15:32.781Z,22.09
2018-07-11T09:16:33.084Z,22.08
2018-07-11T09:17:33.431Z,22.11
2018-07-11T09:18:32.974Z,22.11
2018-07-11T09:19:35.625Z,22.09
2018-07-11T09:20:33.042Z,22.09
2018-07-11T09:21:32.915Z,22.11
2018-07-11T09:22:33.078Z,22.12
2018-07-11T09:23:32.880Z,22.11
2018-07-11T09:24:33.052Z,22.11
2018-07-11T09:25:33.289Z,22.12
2018-07-11T09:26:33.000Z,22.09
2018-07-11T09:27:33.086Z,22.11
2018-07-11T09:28:33.060Z,22.09
2018-07-11T09:29:32.964Z,22.09
2018-07-11T09:30:33.900Z,22.09
2018-07-11T09:31:32.965Z,22.11
2018-07-11T09:32:33.036Z,22.08
2018-07-11T09:33:35.431Z,22.06
2018-07-11T09:34:32.913Z,22.05
2018-07-11T09:35:33.116Z,22.04
2018-07-11T09:36:33.026Z,22.06
2018-07-11T09:37:33.489Z,22.06
2018-07-11T09:38:32.983Z,22.09
2018-07-11T09:39:32.921Z,22.05
2018-07-11T09:40:32.957Z,22.05
2018-07-11T09:41:32.951Z,22.08
2018-07-11T09:42:33.036Z,22.06
2018-07-11T09:43:33.040Z,22.06
2018-07-11T09:44:33.065Z,22.08
2018-07-11T09:45:33.679Z,22.09
2018-07-11T09:46:33.183Z,22.06
2018-07-11T09:47:32.973Z,22.08
2018-07-11T09:48:33.183Z,22.06
2018-07-11T09:49:33.358Z,22.08
2018-07-11T09:50:32.953Z,22.09
2018-07-11T09:51:35.023Z,22.08
2018-07-11T09:52:32.914Z,22.09
2018-07-11T09:53:35.342Z,22.11
2018-07-11T09:54:32.991Z,22.09
2018-07-11T09:55:32.951Z,22.06
2018-07-11T09:56:35.208Z,22.09
2018-07-11T09:57:33.022Z,22.08
2018-07-11T09:58:32.912Z,22.08
2018-07-11T09:59:32.958Z,22.06
2018-07-11T10:00:32.921Z,22.08
2018-07-11T10:01:33.064Z,22.06
2018-07-11T10:02:33.064Z,22.06
2018-07-11T10:03:32.991Z,22.04
2018-07-11T10:04:32.920Z,22.02
2018-07-11T10:05:32.995Z,22.01
2018-07-11T10:06:33.089Z,22.01
2018-07-11T10:07:33.114Z,22.02
2018-07-11T10:08:33.014Z,22.04
2018-07-11T10:09:42.996Z,22.05
2018-07-11T10:10:33.077Z,22.05
2018-07-11T10:11:35.364Z,22.06
2018-07-11T10:12:36.062Z,22.05
2018-07-11T10:13:33.060Z,22.08
2018-07-11T10:14:33.085Z,22.05
2018-07-11T10:15:32.972Z,22.02
2018-07-11T10:16:33.116Z,22.05
2018-07-11T10:17:33.136Z,22.05
2018-07-11T10:18:34.635Z,22.04
2018-07-11T10:19:33.756Z,22.04
2018-07-11T10:20:33.661Z,22.08
2018-07-11T10:21:34.099Z,22.05
2018-07-11T10:22:33.780Z,22.05
2018-07-11T10:23:33.440Z,22.08
2018-07-11T10:24:33.807Z,22.06
2018-07-11T10:25:33.609Z,22.02
2018-07-11T10:26:34.690Z,22.04
2018-07-11T10:27:34.994Z,22.04
2018-07-11T10:28:33.716Z,22.04
2018-07-11T10:29:33.535Z,22.05
2018-07-11T10:30:33.560Z,22.02
2018-07-11T10:31:34.642Z,22.05
2018-07-11T10:32:33.552Z,22.04
2018-07-11T10:33:33.817Z,22.04
2018-07-11T10:34:33.514Z,22.04
2018-07-11T10:35:33.674Z,22.06
2018-07-11T10:36:33.753Z,22.06
2018-07-11T10:37:34.875Z,22.06
2018-07-11T10:38:33.592Z,22.08
2018-07-11T10:39:33.664Z,22.11
2018-07-11T10:40:33.820Z,22.06
2018-07-11T10:41:33.739Z,22.06
2018-07-11T10:42:33.724Z,22.08
2018-07-11T10:43:34.273Z,22.05
2018-07-11T10:44:33.693Z,22.06
2018-07-11T10:45:33.595Z,22.05
2018-07-11T10:46:33.661Z,22.06
2018-07-11T10:47:33.556Z,22.08
2018-07-11T10:48:33.797Z,22.06
2018-07-11T10:49:33.754Z,22.06
2018-07-11T10:50:35.238Z,22.08
2018-07-11T10:51:34.920Z,22.04
2018-07-11T10:52:33.758Z,22.05
2018-07-11T10:53:33.604Z,22.05
2018-07-11T10:54:33.384Z,22.08
2018-07-11T10:55:33.649Z,22.05
2018-07-11T10:56:34.673Z,22.05
2018-07-11T10:57:33.766Z,22.08
2018-07-11T10:58:33.675Z,22.06
2018-07-11T10:59:33.711Z,22.06
2018-07-11T11:00:37.440Z,22.06
2018-07-11T11:01:34.846Z,22.11
2018-07-11T11:02:35.350Z,22.08
2018-07-11T11:03:33.292Z,22.05
2018-07-11T11:04:34.857Z,22.05
2018-07-11T11:05:33.328Z,22.05
2018-07-11T11:06:33.629Z,22.04
2018-07-11T11:07:33.580Z,22.06
2018-07-11T11:08:33.799Z,22.04
2018-07-11T11:09:33.611Z,22.02
2018-07-11T11:10:34.407Z,22.05
2018-07-11T11:11:33.690Z,22.04
2018-07-11T11:12:33.634Z,22.06
2018-07-11T11:13:33.777Z,22.04
2018-07-11T11:14:33.738Z,22.05
2018-07-11T11:15:33.635Z,22.04
2018-07-11T11:16:33.506Z,22.04
2018-07-11T11:17:32.935Z,22.05
2018-07-11T11:18:33.116Z,22.02
2018-07-11T11:19:33.073Z,22.04
2018-07-11T11:20:33.067Z,22.05
2018-07-11T11:21:32.852Z,22.02
2018-07-11T11:22:32.879Z,22.01
2018-07-11T11:23:33.067Z,22.04
2018-07-11T11:24:32.838Z,22.02
2018-07-11T11:25:33.124Z,22.01
2018-07-11T11:26:32.925Z,21.99
2018-07-11T11:27:32.902Z,22.01
2018-07-11T11:28:33.007Z,22.01
2018-07-11T11:29:32.995Z,22.02
2018-07-11T11:30:32.734Z,22.01
2018-07-11T11:31:32.829Z,22.04
2018-07-11T11:32:33.040Z,22.02
2018-07-11T11:33:33.046Z,21.99
2018-07-11T11:34:32.988Z,21.98
2018-07-11T11:35:33.537Z,21.99
2018-07-11T11:36:32.822Z,21.98
2018-07-11T11:37:32.900Z,22.01
2018-07-11T11:38:32.880Z,22.01
2018-07-11T11:39:32.844Z,21.99
2018-07-11T11:40:32.994Z,22.01
2018-07-11T11:41:34.273Z,22.02
2018-07-11T11:42:36.032Z,22.01
2018-07-11T11:43:33.010Z,21.98
2018-07-11T11:44:33.007Z,21.99
2018-07-11T11:45:33.102Z,21.96
2018-07-11T11:46:32.993Z,21.99
2018-07-11T11:47:33.062Z,21.98
2018-07-11T11:48:32.834Z,22.02
2018-07-11T11:49:33.014Z,21.98
2018-07-11T11:50:33.071Z,21.99
2018-07-11T11:51:33.012Z,22.01
2018-07-11T11:52:32.938Z,21.96
2018-07-11T11:53:32.815Z,21.98
2018-07-11T11:54:32.802Z,22.02
2018-07-11T11:55:32.872Z,21.98
2018-07-11T11:56:32.938Z,21.98
2018-07-11T11:57:32.758Z,21.98
2018-07-11T11:58:33.541Z,21.98
2018-07-11T11:59:33.000Z,22.01
2018-07-11T12:00:32.834Z,21.99
2018-07-11T12:01:33.051Z,21.96
2018-07-11T12:02:33.162Z,21.99
2018-07-11T12:03:33.023Z,22.01
2018-07-11T12:04:33.038Z,21.99
2018-07-11T12:05:33.036Z,21.96
2018-07-11T12:06:32.867Z,21.99
2018-07-11T12:07:32.876Z,21.98
2018-07-11T12:08:32.822Z,21.99
2018-07-11T12:09:32.968Z,22.01
2018-07-11T12:10:32.925Z,21.98
2018-07-11T12:11:33.121Z,21.99
2018-07-11T12:12:32.987Z,21.98
2018-07-11T12:13:32.987Z,21.98
2018-07-11T12:14:33.008Z,21.99
2018-07-11T12:15:33.007Z,21.98
2018-07-11T12:16:32.978Z,21.99
2018-07-11T12:17:32.769Z,21.96
2018-07-11T12:18:32.944Z,21.99
2018-07-11T12:19:33.069Z,21.98
2018-07-11T12:20:32.950Z,21.99
2018-07-11T12:21:34.089Z,21.99
2018-07-11T12:22:32.961Z,21.99
2018-07-11T12:23:33.005Z,21.96
2018-07-11T12:24:32.968Z,22.01
2018-07-11T12:25:32.865Z,21.99
2018-07-11T12:26:32.789Z,21.98
2018-07-11T12:27:33.015Z,21.99
2018-07-11T12:28:32.986Z,21.99
2018-07-11T12:29:33.020Z,21.99
2018-07-11T12:30:33.063Z,21.98
2018-07-11T12:31:32.836Z,21.96
2018-07-11T12:32:32.908Z,21.98
2018-07-11T12:33:33.846Z,21.98
2018-07-11T12:34:32.950Z,21.98
2018-07-11T12:35:32.829Z,22.01
2018-07-11T12:36:33.039Z,21.98
2018-07-11T12:37:32.969Z,21.95
2018-07-11T12:38:32.851Z,21.99
2018-07-11T12:39:32.998Z,21.98
2018-07-11T12:40:33.029Z,21.98
2018-07-11T12:41:33.126Z,21.98
2018-07-11T12:42:33.083Z,21.99
2018-07-11T12:43:33.618Z,21.98
2018-07-11T12:44:32.841Z,21.98
2018-07-11T12:45:33.130Z,21.99
2018-07-11T12:46:33.158Z,22.01
2018-07-11T12:47:33.095Z,21.99
2018-07-11T12:48:32.929Z,22.02
2018-07-11T12:49:32.891Z,21.98
2018-07-11T12:50:33.507Z,21.98
2018-07-11T12:51:33.117Z,21.98
2018-07-11T12:52:32.822Z,21.98